Terminal Aerodrome Forecast
Issued by NWS

Home | Current Version | Previous Version | Text Only | Print | Product List | Glossary On
Versions: 1 2 3 4 5 6 7 8 9 10 11 12 13 14 15 16
000
FTUS41 KPBZ 281300 AAA
TAFLBE
TAF AMD
KLBE 281326Z 2813/2912 30008KT 2SM -DZ BR BKN006 OVC012
      TEMPO 2814/2817 4SM -SHRASN BKN006
     FM281700 30006KT P6SM BKN025
     FM282300 32005KT P6SM BKN035=

USA.gov is the U.S. government's official web portal to all federal, state and local government web resources and services.